sensor_id;sensor_type;location;lat;lon;timestamp;P1;durP1;ratioP1;P2;durP2;ratioP2
26702;SDS011;14316;51.074;3.704;2023-05-20T00:00:47;24.23;;;14.73;;
26702;SDS011;14316;51.074;3.704;2023-05-20T00:03:17;21.73;;;14.93;;
26702;SDS011;14316;51.074;3.704;2023-05-20T00:05:44;18.02;;;13.65;;
26702;SDS011;14316;51.074;3.704;2023-05-20T00:08:10;22.13;;;13.52;;
26702;SDS011;14316;51.074;3.704;2023-05-20T00:10:36;20.30;;;13.63;;
26702;SDS011;14316;51.074;3.704;2023-05-20T00:13:02;24.33;;;14.32;;
26702;SDS011;14316;51.074;3.704;2023-05-20T00:15:28;22.35;;;13.90;;
26702;SDS011;14316;51.074;3.704;2023-05-20T00:17:55;21.13;;;13.43;;
26702;SDS011;14316;51.074;3.704;2023-05-20T00:20:21;22.65;;;15.02;;
26702;SDS011;14316;51.074;3.704;2023-05-20T00:22:47;22.50;;;14.90;;
26702;SDS011;14316;51.074;3.704;2023-05-20T00:25:12;25.27;;;15.45;;
26702;SDS011;14316;51.074;3.704;2023-05-20T00:27:39;21.50;;;14.63;;
26702;SDS011;14316;51.074;3.704;2023-05-20T00:30:05;21.70;;;14.25;;
26702;SDS011;14316;51.074;3.704;2023-05-20T00:32:32;24.13;;;14.20;;
26702;SDS011;14316;51.074;3.704;2023-05-20T00:34:58;22.67;;;13.82;;
26702;SDS011;14316;51.074;3.704;2023-05-20T00:37:25;22.23;;;13.10;;
26702;SDS011;14316;51.074;3.704;2023-05-20T00:39:51;25.48;;;13.55;;
26702;SDS011;14316;51.074;3.704;2023-05-20T00:42:23;26.23;;;14.77;;
26702;SDS011;14316;51.074;3.704;2023-05-20T00:44:50;21.73;;;13.55;;
26702;SDS011;14316;51.074;3.704;2023-05-20T00:47:17;21.65;;;14.73;;
26702;SDS011;14316;51.074;3.704;2023-05-20T00:49:44;23.20;;;14.52;;
26702;SDS011;14316;51.074;3.704;2023-05-20T00:52:11;26.35;;;16.55;;
26702;SDS011;14316;51.074;3.704;2023-05-20T00:54:41;23.70;;;15.18;;
26702;SDS011;14316;51.074;3.704;2023-05-20T00:57:07;23.27;;;15.88;;
26702;SDS011;14316;51.074;3.704;2023-05-20T00:59:37;24.13;;;15.82;;
26702;SDS011;14316;51.074;3.704;2023-05-20T01:02:03;20.48;;;13.35;;
26702;SDS011;14316;51.074;3.704;2023-05-20T01:04:30;17.83;;;11.02;;
26702;SDS011;14316;51.074;3.704;2023-05-20T01:06:56;15.00;;;9.57;;
26702;SDS011;14316;51.074;3.704;2023-05-20T01:09:25;17.05;;;8.95;;
26702;SDS011;14316;51.074;3.704;2023-05-20T01:11:55;13.85;;;9.13;;
26702;SDS011;14316;51.074;3.704;2023-05-20T01:14:27;15.43;;;9.20;;
26702;SDS011;14316;51.074;3.704;2023-05-20T01:16:59;14.80;;;9.02;;
26702;SDS011;14316;51.074;3.704;2023-05-20T01:19:40;13.98;;;7.35;;
26702;SDS011;14316;51.074;3.704;2023-05-20T01:22:10;13.38;;;8.25;;
26702;SDS011;14316;51.074;3.704;2023-05-20T01:24:40;9.27;;;7.20;;
26702;SDS011;14316;51.074;3.704;2023-05-20T01:27:08;13.50;;;7.97;;
26702;SDS011;14316;51.074;3.704;2023-05-20T01:29:35;9.82;;;7.43;;
26702;SDS011;14316;51.074;3.704;2023-05-20T01:32:03;11.23;;;7.18;;
26702;SDS011;14316;51.074;3.704;2023-05-20T01:34:34;10.27;;;7.32;;
26702;SDS011;14316;51.074;3.704;2023-05-20T01:37:02;11.93;;;7.10;;
26702;SDS011;14316;51.074;3.704;2023-05-20T01:39:30;12.23;;;7.18;;
26702;SDS011;14316;51.074;3.704;2023-05-20T01:42:00;11.95;;;6.68;;
26702;SDS011;14316;51.074;3.704;2023-05-20T01:44:27;11.20;;;6.50;;
26702;SDS011;14316;51.074;3.704;2023-05-20T01:46:53;14.63;;;6.07;;
26702;SDS011;14316;51.074;3.704;2023-05-20T01:49:19;12.55;;;6.88;;
26702;SDS011;14316;51.074;3.704;2023-05-20T01:51:45;12.02;;;6.65;;
26702;SDS011;14316;51.074;3.704;2023-05-20T01:54:11;13.13;;;6.82;;
26702;SDS011;14316;51.074;3.704;2023-05-20T01:56:36;9.23;;;6.25;;
26702;SDS011;14316;51.074;3.704;2023-05-20T01:59:02;11.57;;;6.57;;
26702;SDS011;14316;51.074;3.704;2023-05-20T02:01:28;11.65;;;6.90;;
26702;SDS011;14316;51.074;3.704;2023-05-20T02:03:54;11.77;;;7.07;;
26702;SDS011;14316;51.074;3.704;2023-05-20T02:06:20;12.93;;;7.50;;
26702;SDS011;14316;51.074;3.704;2023-05-20T02:08:46;11.25;;;7.10;;
26702;SDS011;14316;51.074;3.704;2023-05-20T02:11:11;9.50;;;6.70;;
26702;SDS011;14316;51.074;3.704;2023-05-20T02:13:37;9.75;;;6.75;;
26702;SDS011;14316;51.074;3.704;2023-05-20T02:16:04;15.30;;;7.22;;
26702;SDS011;14316;51.074;3.704;2023-05-20T02:18:29;10.95;;;6.70;;
26702;SDS011;14316;51.074;3.704;2023-05-20T02:21:00;10.85;;;6.50;;
26702;SDS011;14316;51.074;3.704;2023-05-20T02:23:33;13.00;;;6.75;;
26702;SDS011;14316;51.074;3.704;2023-05-20T02:25:59;13.90;;;7.05;;
26702;SDS011;14316;51.074;3.704;2023-05-20T02:28:25;11.27;;;6.90;;
26702;SDS011;14316;51.074;3.704;2023-05-20T02:30:51;11.18;;;6.63;;
26702;SDS011;14316;51.074;3.704;2023-05-20T02:33:17;10.93;;;6.47;;
26702;SDS011;14316;51.074;3.704;2023-05-20T02:35:43;10.20;;;6.57;;
26702;SDS011;14316;51.074;3.704;2023-05-20T02:38:09;10.27;;;6.47;;
26702;SDS011;14316;51.074;3.704;2023-05-20T02:40:36;10.23;;;6.88;;
26702;SDS011;14316;51.074;3.704;2023-05-20T02:43:01;10.02;;;7.00;;
26702;SDS011;14316;51.074;3.704;2023-05-20T02:45:27;12.30;;;6.95;;
26702;SDS011;14316;51.074;3.704;2023-05-20T02:47:53;12.75;;;6.78;;
26702;SDS011;14316;51.074;3.704;2023-05-20T02:50:19;10.50;;;6.30;;
26702;SDS011;14316;51.074;3.704;2023-05-20T02:52:45;11.38;;;6.60;;
26702;SDS011;14316;51.074;3.704;2023-05-20T02:55:11;12.48;;;6.55;;
26702;SDS011;14316;51.074;3.704;2023-05-20T02:57:37;12.57;;;6.70;;
26702;SDS011;14316;51.074;3.704;2023-05-20T03:00:03;13.68;;;6.95;;
26702;SDS011;14316;51.074;3.704;2023-05-20T03:02:31;8.13;;;6.13;;
26702;SDS011;14316;51.074;3.704;2023-05-20T03:04:57;14.07;;;7.35;;
26702;SDS011;14316;51.074;3.704;2023-05-20T03:07:23;8.48;;;5.63;;
26702;SDS011;14316;51.074;3.704;2023-05-20T03:09:49;10.32;;;6.97;;
26702;SDS011;14316;51.074;3.704;2023-05-20T03:12:15;11.95;;;7.00;;
26702;SDS011;14316;51.074;3.704;2023-05-20T03:14:40;9.93;;;6.35;;
26702;SDS011;14316;51.074;3.704;2023-05-20T03:17:07;11.77;;;6.60;;
26702;SDS011;14316;51.074;3.704;2023-05-20T03:19:33;10.05;;;6.97;;
26702;SDS011;14316;51.074;3.704;2023-05-20T03:21:59;10.52;;;7.25;;
26702;SDS011;14316;51.074;3.704;2023-05-20T03:24:25;12.65;;;6.97;;
26702;SDS011;14316;51.074;3.704;2023-05-20T03:26:51;10.32;;;6.88;;
26702;SDS011;14316;51.074;3.704;2023-05-20T03:29:17;15.13;;;7.45;;
26702;SDS011;14316;51.074;3.704;2023-05-20T03:31:43;13.27;;;7.05;;
26702;SDS011;14316;51.074;3.704;2023-05-20T03:34:09;10.25;;;6.45;;
26702;SDS011;14316;51.074;3.704;2023-05-20T03:36:35;10.43;;;6.53;;
26702;SDS011;14316;51.074;3.704;2023-05-20T03:39:00;12.25;;;7.25;;
26702;SDS011;14316;51.074;3.704;2023-05-20T03:41:27;14.40;;;7.18;;
26702;SDS011;14316;51.074;3.704;2023-05-20T03:43:52;11.95;;;7.28;;
26702;SDS011;14316;51.074;3.704;2023-05-20T03:46:18;11.05;;;6.47;;
26702;SDS011;14316;51.074;3.704;2023-05-20T03:48:44;12.45;;;6.93;;
26702;SDS011;14316;51.074;3.704;2023-05-20T03:51:09;11.15;;;6.78;;
26702;SDS011;14316;51.074;3.704;2023-05-20T03:53:35;11.20;;;6.60;;
26702;SDS011;14316;51.074;3.704;2023-05-20T03:56:01;13.80;;;6.80;;
26702;SDS011;14316;51.074;3.704;2023-05-20T03:58:27;12.45;;;7.25;;
26702;SDS011;14316;51.074;3.704;2023-05-20T04:00:53;10.07;;;6.65;;
26702;SDS011;14316;51.074;3.704;2023-05-20T04:03:19;13.35;;;7.43;;
26702;SDS011;14316;51.074;3.704;2023-05-20T04:05:47;12.93;;;7.03;;
26702;SDS011;14316;51.074;3.704;2023-05-20T04:08:13;13.20;;;7.43;;
26702;SDS011;14316;51.074;3.704;2023-05-20T04:10:42;14.43;;;7.75;;
26702;SDS011;14316;51.074;3.704;2023-05-20T04:13:09;11.30;;;6.72;;
26702;SDS011;14316;51.074;3.704;2023-05-20T04:15:35;12.68;;;7.25;;
26702;SDS011;14316;51.074;3.704;2023-05-20T04:18:02;11.35;;;7.07;;
26702;SDS011;14316;51.074;3.704;2023-05-20T04:20:30;15.15;;;7.57;;
26702;SDS011;14316;51.074;3.704;2023-05-20T04:22:56;10.10;;;7.20;;
26702;SDS011;14316;51.074;3.704;2023-05-20T04:25:22;8.98;;;7.20;;
26702;SDS011;14316;51.074;3.704;2023-05-20T04:27:48;12.38;;;7.05;;
26702;SDS011;14316;51.074;3.704;2023-05-20T04:30:15;12.50;;;8.25;;
26702;SDS011;14316;51.074;3.704;2023-05-20T04:32:42;15.48;;;7.03;;
26702;SDS011;14316;51.074;3.704;2023-05-20T04:35:08;14.52;;;8.32;;
26702;SDS011;14316;51.074;3.704;2023-05-20T04:37:36;13.05;;;8.63;;
26702;SDS011;14316;51.074;3.704;2023-05-20T04:40:02;14.45;;;7.72;;
26702;SDS011;14316;51.074;3.704;2023-05-20T04:42:31;14.43;;;8.50;;
26702;SDS011;14316;51.074;3.704;2023-05-20T04:44:57;14.20;;;8.52;;
26702;SDS011;14316;51.074;3.704;2023-05-20T04:47:26;14.43;;;8.85;;
26702;SDS011;14316;51.074;3.704;2023-05-20T04:49:53;12.73;;;8.02;;
26702;SDS011;14316;51.074;3.704;2023-05-20T04:52:22;11.18;;;7.65;;
26702;SDS011;14316;51.074;3.704;2023-05-20T04:54:54;11.23;;;7.55;;
26702;SDS011;14316;51.074;3.704;2023-05-20T04:57:22;12.77;;;6.97;;
26702;SDS011;14316;51.074;3.704;2023-05-20T04:59:49;12.10;;;7.82;;
26702;SDS011;14316;51.074;3.704;2023-05-20T05:02:16;13.48;;;7.72;;
26702;SDS011;14316;51.074;3.704;2023-05-20T05:04:42;12.07;;;7.20;;
26702;SDS011;14316;51.074;3.704;2023-05-20T05:07:08;11.80;;;7.70;;
26702;SDS011;14316;51.074;3.704;2023-05-20T05:09:33;11.60;;;7.63;;
26702;SDS011;14316;51.074;3.704;2023-05-20T05:12:00;10.27;;;7.60;;
26702;SDS011;14316;51.074;3.704;2023-05-20T05:14:26;12.13;;;7.25;;
26702;SDS011;14316;51.074;3.704;2023-05-20T05:16:52;11.48;;;7.30;;
26702;SDS011;14316;51.074;3.704;2023-05-20T05:19:18;11.80;;;7.70;;
26702;SDS011;14316;51.074;3.704;2023-05-20T05:21:43;9.25;;;7.20;;
26702;SDS011;14316;51.074;3.704;2023-05-20T05:24:09;12.95;;;7.72;;
26702;SDS011;14316;51.074;3.704;2023-05-20T05:26:35;8.80;;;6.90;;
26702;SDS011;14316;51.074;3.704;2023-05-20T05:29:01;8.50;;;7.00;;
26702;SDS011;14316;51.074;3.704;2023-05-20T05:31:27;14.20;;;7.28;;
26702;SDS011;14316;51.074;3.704;2023-05-20T05:33:52;10.00;;;7.03;;
26702;SDS011;14316;51.074;3.704;2023-05-20T05:36:18;12.15;;;7.28;;
26702;SDS011;14316;51.074;3.704;2023-05-20T05:38:44;11.75;;;7.68;;
26702;SDS011;14316;51.074;3.704;2023-05-20T05:41:10;9.65;;;7.00;;
26702;SDS011;14316;51.074;3.704;2023-05-20T05:43:35;11.35;;;7.28;;
26702;SDS011;14316;51.074;3.704;2023-05-20T05:46:01;10.65;;;7.82;;
26702;SDS011;14316;51.074;3.704;2023-05-20T05:48:27;15.07;;;7.80;;
26702;SDS011;14316;51.074;3.704;2023-05-20T05:50:52;11.70;;;7.30;;
26702;SDS011;14316;51.074;3.704;2023-05-20T05:53:18;11.48;;;7.65;;
26702;SDS011;14316;51.074;3.704;2023-05-20T05:55:47;10.30;;;7.32;;
26702;SDS011;14316;51.074;3.704;2023-05-20T05:58:13;11.23;;;7.95;;
26702;SDS011;14316;51.074;3.704;2023-05-20T06:00:39;11.75;;;7.72;;
26702;SDS011;14316;51.074;3.704;2023-05-20T06:03:04;11.82;;;7.72;;
26702;SDS011;14316;51.074;3.704;2023-05-20T06:05:30;10.38;;;7.75;;
26702;SDS011;14316;51.074;3.704;2023-05-20T06:07:57;10.85;;;8.10;;
26702;SDS011;14316;51.074;3.704;2023-05-20T06:10:22;10.93;;;7.57;;
26702;SDS011;14316;51.074;3.704;2023-05-20T06:12:48;14.75;;;7.90;;
26702;SDS011;14316;51.074;3.704;2023-05-20T06:15:14;10.05;;;7.63;;
26702;SDS011;14316;51.074;3.704;2023-05-20T06:17:40;12.18;;;7.72;;
26702;SDS011;14316;51.074;3.704;2023-05-20T06:20:06;10.43;;;7.80;;
26702;SDS011;14316;51.074;3.704;2023-05-20T06:22:32;11.32;;;7.90;;
26702;SDS011;14316;51.074;3.704;2023-05-20T06:24:58;13.95;;;8.70;;
26702;SDS011;14316;51.074;3.704;2023-05-20T06:27:26;11.63;;;7.63;;
26702;SDS011;14316;51.074;3.704;2023-05-20T06:29:52;11.70;;;7.63;;
26702;SDS011;14316;51.074;3.704;2023-05-20T06:32:18;9.13;;;7.43;;
26702;SDS011;14316;51.074;3.704;2023-05-20T06:34:44;12.65;;;7.50;;
26702;SDS011;14316;51.074;3.704;2023-05-20T06:37:09;10.45;;;6.68;;
26702;SDS011;14316;51.074;3.704;2023-05-20T06:39:35;13.05;;;7.20;;
26702;SDS011;14316;51.074;3.704;2023-05-20T06:42:01;9.05;;;7.05;;
26702;SDS011;14316;51.074;3.704;2023-05-20T06:44:27;11.38;;;7.45;;
26702;SDS011;14316;51.074;3.704;2023-05-20T06:46:55;10.95;;;7.57;;
26702;SDS011;14316;51.074;3.704;2023-05-20T06:49:21;9.60;;;7.63;;
26702;SDS011;14316;51.074;3.704;2023-05-20T06:51:48;10.90;;;7.13;;
26702;SDS011;14316;51.074;3.704;2023-05-20T06:54:13;9.85;;;7.47;;
26702;SDS011;14316;51.074;3.704;2023-05-20T06:56:39;8.77;;;7.70;;
26702;SDS011;14316;51.074;3.704;2023-05-20T06:59:05;9.90;;;6.57;;
26702;SDS011;14316;51.074;3.704;2023-05-20T07:01:31;9.60;;;6.93;;
26702;SDS011;14316;51.074;3.704;2023-05-20T07:03:57;8.93;;;7.10;;
26702;SDS011;14316;51.074;3.704;2023-05-20T07:06:23;10.05;;;6.82;;
26702;SDS011;14316;51.074;3.704;2023-05-20T07:08:49;11.60;;;7.22;;
26702;SDS011;14316;51.074;3.704;2023-05-20T07:11:14;10.00;;;7.28;;
26702;SDS011;14316;51.074;3.704;2023-05-20T07:13:41;12.40;;;8.30;;
26702;SDS011;14316;51.074;3.704;2023-05-20T07:16:07;10.55;;;7.70;;
26702;SDS011;14316;51.074;3.704;2023-05-20T07:18:33;9.05;;;7.47;;
26702;SDS011;14316;51.074;3.704;2023-05-20T07:20:59;13.15;;;7.57;;
26702;SDS011;14316;51.074;3.704;2023-05-20T07:23:25;12.25;;;8.15;;
26702;SDS011;14316;51.074;3.704;2023-05-20T07:25:51;12.27;;;9.20;;
26702;SDS011;14316;51.074;3.704;2023-05-20T07:28:18;12.82;;;8.35;;
26702;SDS011;14316;51.074;3.704;2023-05-20T07:30:44;15.20;;;9.38;;
26702;SDS011;14316;51.074;3.704;2023-05-20T07:33:14;12.70;;;9.57;;
26702;SDS011;14316;51.074;3.704;2023-05-20T07:35:41;13.70;;;9.55;;
26702;SDS011;14316;51.074;3.704;2023-05-20T07:38:08;15.60;;;10.00;;
26702;SDS011;14316;51.074;3.704;2023-05-20T07:40:36;14.75;;;10.48;;
26702;SDS011;14316;51.074;3.704;2023-05-20T07:43:04;10.55;;;8.15;;
26702;SDS011;14316;51.074;3.704;2023-05-20T07:45:33;11.07;;;7.50;;
26702;SDS011;14316;51.074;3.704;2023-05-20T07:48:01;11.57;;;8.70;;
26702;SDS011;14316;51.074;3.704;2023-05-20T07:50:28;13.93;;;9.68;;
26702;SDS011;14316;51.074;3.704;2023-05-20T07:52:58;17.92;;;11.75;;
26702;SDS011;14316;51.074;3.704;2023-05-20T07:55:25;16.08;;;10.48;;
26702;SDS011;14316;51.074;3.704;2023-05-20T07:57:52;12.93;;;7.47;;
26702;SDS011;14316;51.074;3.704;2023-05-20T08:00:20;11.90;;;6.38;;
26702;SDS011;14316;51.074;3.704;2023-05-20T08:02:46;8.60;;;6.03;;
26702;SDS011;14316;51.074;3.704;2023-05-20T08:05:12;7.85;;;6.32;;
26702;SDS011;14316;51.074;3.704;2023-05-20T08:07:38;11.63;;;6.63;;
26702;SDS011;14316;51.074;3.704;2023-05-20T08:10:04;11.80;;;7.38;;
26702;SDS011;14316;51.074;3.704;2023-05-20T08:12:31;12.43;;;8.05;;
26702;SDS011;14316;51.074;3.704;2023-05-20T08:14:58;10.07;;;7.22;;
26702;SDS011;14316;51.074;3.704;2023-05-20T08:17:23;11.77;;;7.90;;
26702;SDS011;14316;51.074;3.704;2023-05-20T08:19:49;12.25;;;7.93;;
26702;SDS011;14316;51.074;3.704;2023-05-20T08:22:15;10.15;;;7.28;;
26702;SDS011;14316;51.074;3.704;2023-05-20T08:24:44;9.20;;;6.68;;
26702;SDS011;14316;51.074;3.704;2023-05-20T08:27:13;10.48;;;8.10;;
26702;SDS011;14316;51.074;3.704;2023-05-20T08:29:39;12.15;;;9.00;;
26702;SDS011;14316;51.074;3.704;2023-05-20T08:32:05;15.05;;;11.25;;
26702;SDS011;14316;51.074;3.704;2023-05-20T08:34:31;16.50;;;10.27;;
26702;SDS011;14316;51.074;3.704;2023-05-20T08:36:57;10.25;;;8.10;;
26702;SDS011;14316;51.074;3.704;2023-05-20T08:39:23;10.45;;;7.35;;
26702;SDS011;14316;51.074;3.704;2023-05-20T08:41:49;12.32;;;7.05;;
26702;SDS011;14316;51.074;3.704;2023-05-20T08:44:15;12.63;;;7.70;;
26702;SDS011;14316;51.074;3.704;2023-05-20T08:46:42;7.20;;;6.35;;
26702;SDS011;14316;51.074;3.704;2023-05-20T08:49:09;7.07;;;5.82;;
26702;SDS011;14316;51.074;3.704;2023-05-20T08:51:35;9.48;;;6.05;;
26702;SDS011;14316;51.074;3.704;2023-05-20T08:54:01;11.15;;;6.53;;
26702;SDS011;14316;51.074;3.704;2023-05-20T08:56:27;9.65;;;6.05;;
26702;SDS011;14316;51.074;3.704;2023-05-20T08:58:53;7.40;;;5.70;;
26702;SDS011;14316;51.074;3.704;2023-05-20T09:01:23;8.65;;;5.80;;
26702;SDS011;14316;51.074;3.704;2023-05-20T09:04:08;7.05;;;5.60;;
26702;SDS011;14316;51.074;3.704;2023-05-20T09:06:44;9.40;;;5.55;;
26702;SDS011;14316;51.074;3.704;2023-05-20T09:09:11;7.30;;;4.78;;
26702;SDS011;14316;51.074;3.704;2023-05-20T09:11:38;15.35;;;5.70;;
26702;SDS011;14316;51.074;3.704;2023-05-20T09:14:05;8.85;;;5.40;;
26702;SDS011;14316;51.074;3.704;2023-05-20T09:16:31;6.75;;;4.40;;
26702;SDS011;14316;51.074;3.704;2023-05-20T09:18:57;8.55;;;4.82;;
26702;SDS011;14316;51.074;3.704;2023-05-20T09:21:26;8.82;;;4.43;;
26702;SDS011;14316;51.074;3.704;2023-05-20T09:23:53;7.82;;;5.05;;
26702;SDS011;14316;51.074;3.704;2023-05-20T09:26:21;10.18;;;4.80;;
26702;SDS011;14316;51.074;3.704;2023-05-20T09:28:48;8.48;;;4.88;;
26702;SDS011;14316;51.074;3.704;2023-05-20T09:31:15;7.85;;;5.25;;
26702;SDS011;14316;51.074;3.704;2023-05-20T09:33:41;9.93;;;4.60;;
26702;SDS011;14316;51.074;3.704;2023-05-20T09:36:08;7.20;;;5.05;;
26702;SDS011;14316;51.074;3.704;2023-05-20T09:38:37;8.45;;;5.20;;
26702;SDS011;14316;51.074;3.704;2023-05-20T09:41:09;10.10;;;5.70;;
26702;SDS011;14316;51.074;3.704;2023-05-20T09:43:37;8.18;;;5.70;;
26702;SDS011;14316;51.074;3.704;2023-05-20T09:46:04;11.20;;;5.90;;
26702;SDS011;14316;51.074;3.704;2023-05-20T09:48:30;6.80;;;4.57;;
26702;SDS011;14316;51.074;3.704;2023-05-20T09:50:57;7.25;;;5.18;;
26702;SDS011;14316;51.074;3.704;2023-05-20T09:53:26;9.52;;;5.00;;
26702;SDS011;14316;51.074;3.704;2023-05-20T09:55:53;10.23;;;5.00;;
26702;SDS011;14316;51.074;3.704;2023-05-20T09:58:19;6.72;;;5.05;;
26702;SDS011;14316;51.074;3.704;2023-05-20T10:00:46;8.02;;;5.10;;
26702;SDS011;14316;51.074;3.704;2023-05-20T10:03:12;7.60;;;4.78;;
26702;SDS011;14316;51.074;3.704;2023-05-20T10:05:40;8.07;;;4.90;;
26702;SDS011;14316;51.074;3.704;2023-05-20T10:11:05;7.10;;;5.80;;
26702;SDS011;14316;51.074;3.704;2023-05-20T10:21:58;6.32;;;4.25;;
26702;SDS011;14316;51.074;3.704;2023-05-20T10:24:41;10.05;;;4.75;;
26702;SDS011;14316;51.074;3.704;2023-05-20T10:27:12;7.68;;;5.22;;
26702;SDS011;14316;51.074;3.704;2023-05-20T10:35:04;10.95;;;5.88;;
26702;SDS011;14316;51.074;3.704;2023-05-20T10:37:42;9.30;;;4.45;;
26702;SDS011;14316;51.074;3.704;2023-05-20T10:40:13;7.03;;;3.90;;
26702;SDS011;14316;51.074;3.704;2023-05-20T10:42:40;12.13;;;4.03;;
26702;SDS011;14316;51.074;3.704;2023-05-20T10:45:07;8.82;;;3.75;;
26702;SDS011;14316;51.074;3.704;2023-05-20T10:47:33;6.13;;;3.78;;
26702;SDS011;14316;51.074;3.704;2023-05-20T10:50:00;6.85;;;3.50;;
26702;SDS011;14316;51.074;3.704;2023-05-20T10:52:31;8.48;;;3.90;;
26702;SDS011;14316;51.074;3.704;2023-05-20T10:55:00;11.27;;;6.40;;
26702;SDS011;14316;51.074;3.704;2023-05-20T10:57:27;9.02;;;5.38;;
26702;SDS011;14316;51.074;3.704;2023-05-20T10:59:54;6.30;;;4.57;;
26702;SDS011;14316;51.074;3.704;2023-05-20T11:02:20;9.25;;;4.25;;
26702;SDS011;14316;51.074;3.704;2023-05-20T11:04:55;7.88;;;4.32;;
26702;SDS011;14316;51.074;3.704;2023-05-20T11:07:28;6.43;;;3.83;;
26702;SDS011;14316;51.074;3.704;2023-05-20T11:09:56;10.15;;;4.60;;
26702;SDS011;14316;51.074;3.704;2023-05-20T11:12:23;9.48;;;4.28;;
26702;SDS011;14316;51.074;3.704;2023-05-20T11:14:50;6.30;;;3.50;;
26702;SDS011;14316;51.074;3.704;2023-05-20T11:17:16;6.05;;;4.10;;
26702;SDS011;14316;51.074;3.704;2023-05-20T11:19:43;6.50;;;3.67;;
26702;SDS011;14316;51.074;3.704;2023-05-20T11:22:09;7.45;;;3.35;;
26702;SDS011;14316;51.074;3.704;2023-05-20T11:24:34;7.30;;;3.33;;
26702;SDS011;14316;51.074;3.704;2023-05-20T11:27:01;7.25;;;3.22;;
26702;SDS011;14316;51.074;3.704;2023-05-20T11:29:28;4.90;;;2.90;;
26702;SDS011;14316;51.074;3.704;2023-05-20T11:31:56;4.88;;;3.42;;
26702;SDS011;14316;51.074;3.704;2023-05-20T11:34:23;5.97;;;3.40;;
26702;SDS011;14316;51.074;3.704;2023-05-20T11:36:58;3.25;;;2.95;;
26702;SDS011;14316;51.074;3.704;2023-05-20T11:39:25;7.47;;;3.00;;
26702;SDS011;14316;51.074;3.704;2023-05-20T11:41:54;5.13;;;3.00;;
26702;SDS011;14316;51.074;3.704;2023-05-20T11:44:20;7.28;;;3.03;;
26702;SDS011;14316;51.074;3.704;2023-05-20T11:46:46;4.90;;;2.88;;
26702;SDS011;14316;51.074;3.704;2023-05-20T11:49:12;3.40;;;2.55;;
26702;SDS011;14316;51.074;3.704;2023-05-20T11:51:39;4.65;;;2.83;;
26702;SDS011;14316;51.074;3.704;2023-05-20T11:54:06;7.38;;;2.72;;
26702;SDS011;14316;51.074;3.704;2023-05-20T11:56:33;6.72;;;2.55;;
26702;SDS011;14316;51.074;3.704;2023-05-20T11:59:03;6.35;;;2.90;;
26702;SDS011;14316;51.074;3.704;2023-05-20T12:01:34;5.25;;;2.80;;
26702;SDS011;14316;51.074;3.704;2023-05-20T12:04:05;4.82;;;2.60;;
26702;SDS011;14316;51.074;3.704;2023-05-20T12:06:31;3.95;;;2.85;;
26702;SDS011;14316;51.074;3.704;2023-05-20T12:09:00;4.50;;;2.70;;
26702;SDS011;14316;51.074;3.704;2023-05-20T12:11:30;5.55;;;2.78;;
26702;SDS011;14316;51.074;3.704;2023-05-20T12:14:05;5.10;;;2.33;;
26702;SDS011;14316;51.074;3.704;2023-05-20T12:16:33;6.75;;;2.70;;
26702;SDS011;14316;51.074;3.704;2023-05-20T12:18:59;5.30;;;2.42;;
26702;SDS011;14316;51.074;3.704;2023-05-20T12:21:25;6.55;;;2.63;;
26702;SDS011;14316;51.074;3.704;2023-05-20T12:23:55;3.92;;;2.47;;
26702;SDS011;14316;51.074;3.704;2023-05-20T12:26:25;6.95;;;2.85;;
26702;SDS011;14316;51.074;3.704;2023-05-20T12:28:52;6.20;;;2.38;;
26702;SDS011;14316;51.074;3.704;2023-05-20T12:31:18;2.72;;;2.20;;
26702;SDS011;14316;51.074;3.704;2023-05-20T12:33:44;4.63;;;2.28;;
26702;SDS011;14316;51.074;3.704;2023-05-20T12:36:10;5.38;;;2.20;;
26702;SDS011;14316;51.074;3.704;2023-05-20T12:38:37;9.05;;;2.85;;
26702;SDS011;14316;51.074;3.704;2023-05-20T12:41:03;6.75;;;2.47;;
26702;SDS011;14316;51.074;3.704;2023-05-20T12:43:29;5.15;;;2.58;;
26702;SDS011;14316;51.074;3.704;2023-05-20T12:45:54;5.03;;;2.50;;
26702;SDS011;14316;51.074;3.704;2023-05-20T12:48:20;6.40;;;2.47;;
26702;SDS011;14316;51.074;3.704;2023-05-20T12:50:46;6.78;;;2.78;;
26702;SDS011;14316;51.074;3.704;2023-05-20T12:53:12;2.60;;;2.40;;
26702;SDS011;14316;51.074;3.704;2023-05-20T12:55:39;4.18;;;2.55;;
26702;SDS011;14316;51.074;3.704;2023-05-20T12:58:05;4.45;;;2.63;;
26702;SDS011;14316;51.074;3.704;2023-05-20T13:00:33;3.53;;;2.38;;
26702;SDS011;14316;51.074;3.704;2023-05-20T13:02:59;5.18;;;2.38;;
26702;SDS011;14316;51.074;3.704;2023-05-20T13:05:25;4.55;;;2.50;;
26702;SDS011;14316;51.074;3.704;2023-05-20T13:07:51;4.07;;;2.40;;
26702;SDS011;14316;51.074;3.704;2023-05-20T13:10:17;3.70;;;2.70;;
26702;SDS011;14316;51.074;3.704;2023-05-20T13:12:43;3.70;;;2.55;;
26702;SDS011;14316;51.074;3.704;2023-05-20T13:15:10;4.95;;;2.53;;
26702;SDS011;14316;51.074;3.704;2023-05-20T13:17:39;4.43;;;2.70;;
26702;SDS011;14316;51.074;3.704;2023-05-20T13:20:06;5.70;;;2.45;;
26702;SDS011;14316;51.074;3.704;2023-05-20T13:22:33;6.40;;;2.80;;
26702;SDS011;14316;51.074;3.704;2023-05-20T13:24:59;3.35;;;2.70;;
26702;SDS011;14316;51.074;3.704;2023-05-20T13:27:24;4.70;;;2.55;;
26702;SDS011;14316;51.074;3.704;2023-05-20T13:29:51;5.45;;;2.50;;
26702;SDS011;14316;51.074;3.704;2023-05-20T13:32:16;11.60;;;2.88;;
26702;SDS011;14316;51.074;3.704;2023-05-20T13:34:42;6.07;;;2.53;;
26702;SDS011;14316;51.074;3.704;2023-05-20T13:37:08;3.30;;;2.80;;
26702;SDS011;14316;51.074;3.704;2023-05-20T13:39:34;4.18;;;2.17;;
26702;SDS011;14316;51.074;3.704;2023-05-20T13:42:00;5.72;;;2.70;;
26702;SDS011;14316;51.074;3.704;2023-05-20T13:44:26;3.83;;;2.28;;
26702;SDS011;14316;51.074;3.704;2023-05-20T13:46:52;4.00;;;2.25;;
26702;SDS011;14316;51.074;3.704;2023-05-20T13:49:18;4.55;;;2.10;;
26702;SDS011;14316;51.074;3.704;2023-05-20T13:51:44;4.15;;;2.47;;
26702;SDS011;14316;51.074;3.704;2023-05-20T13:54:10;5.22;;;3.03;;
26702;SDS011;14316;51.074;3.704;2023-05-20T13:56:36;4.80;;;3.03;;
26702;SDS011;14316;51.074;3.704;2023-05-20T13:59:02;5.55;;;2.60;;
26702;SDS011;14316;51.074;3.704;2023-05-20T14:01:29;4.85;;;2.58;;
26702;SDS011;14316;51.074;3.704;2023-05-20T14:03:57;4.20;;;3.33;;
26702;SDS011;14316;51.074;3.704;2023-05-20T14:06:23;5.95;;;3.72;;
26702;SDS011;14316;51.074;3.704;2023-05-20T14:08:49;5.43;;;2.63;;
26702;SDS011;14316;51.074;3.704;2023-05-20T14:11:18;3.60;;;2.40;;
26702;SDS011;14316;51.074;3.704;2023-05-20T14:13:45;3.97;;;2.60;;
26702;SDS011;14316;51.074;3.704;2023-05-20T14:16:11;5.93;;;3.05;;
26702;SDS011;14316;51.074;3.704;2023-05-20T14:18:37;5.40;;;2.75;;
26702;SDS011;14316;51.074;3.704;2023-05-20T14:21:02;4.72;;;2.70;;
26702;SDS011;14316;51.074;3.704;2023-05-20T14:23:28;5.43;;;2.60;;
26702;SDS011;14316;51.074;3.704;2023-05-20T14:25:54;4.38;;;2.80;;
26702;SDS011;14316;51.074;3.704;2023-05-20T14:28:20;3.33;;;2.75;;
26702;SDS011;14316;51.074;3.704;2023-05-20T14:30:46;5.68;;;2.60;;
26702;SDS011;14316;51.074;3.704;2023-05-20T14:33:11;3.58;;;2.50;;
26702;SDS011;14316;51.074;3.704;2023-05-20T14:35:37;5.45;;;2.67;;
26702;SDS011;14316;51.074;3.704;2023-05-20T14:38:03;4.43;;;3.00;;
26702;SDS011;14316;51.074;3.704;2023-05-20T14:40:28;6.57;;;3.35;;
26702;SDS011;14316;51.074;3.704;2023-05-20T14:42:55;3.47;;;3.10;;
26702;SDS011;14316;51.074;3.704;2023-05-20T14:45:21;4.68;;;3.45;;
26702;SDS011;14316;51.074;3.704;2023-05-20T14:47:46;6.18;;;3.05;;
26702;SDS011;14316;51.074;3.704;2023-05-20T14:50:12;7.13;;;3.13;;
26702;SDS011;14316;51.074;3.704;2023-05-20T14:52:38;5.03;;;3.20;;